sensor_id;sensor_type;location;lat;lon;timestamp;P1;durP1;ratioP1;P2;durP2;ratioP2
2299;SDS011;1158;48.750;9.078;2023-07-24T00:01:12;15.97;;;10.23;;
2299;SDS011;1158;48.750;9.078;2023-07-24T00:03:39;16.17;;;8.83;;
2299;SDS011;1158;48.750;9.078;2023-07-24T00:06:06;15.60;;;9.70;;
2299;SDS011;1158;48.750;9.078;2023-07-24T00:08:32;14.73;;;9.63;;
2299;SDS011;1158;48.750;9.078;2023-07-24T00:11:00;14.93;;;9.37;;
2299;SDS011;1158;48.750;9.078;2023-07-24T00:13:29;14.37;;;10.20;;
2299;SDS011;1158;48.750;9.078;2023-07-24T00:15:56;14.97;;;9.63;;
2299;SDS011;1158;48.750;9.078;2023-07-24T00:18:23;13.70;;;10.20;;
2299;SDS011;1158;48.750;9.078;2023-07-24T00:20:50;13.87;;;9.50;;
2299;SDS011;1158;48.750;9.078;2023-07-24T00:23:16;15.23;;;9.67;;
2299;SDS011;1158;48.750;9.078;2023-07-24T00:25:43;13.23;;;9.33;;
2299;SDS011;1158;48.750;9.078;2023-07-24T00:28:11;19.23;;;10.47;;
2299;SDS011;1158;48.750;9.078;2023-07-24T00:30:38;15.17;;;10.10;;
2299;SDS011;1158;48.750;9.078;2023-07-24T00:33:05;16.23;;;10.00;;
2299;SDS011;1158;48.750;9.078;2023-07-24T00:35:31;17.37;;;10.40;;
2299;SDS011;1158;48.750;9.078;2023-07-24T00:37:57;16.10;;;11.50;;
2299;SDS011;1158;48.750;9.078;2023-07-24T00:40:24;19.30;;;10.70;;
2299;SDS011;1158;48.750;9.078;2023-07-24T00:42:51;13.23;;;9.90;;
2299;SDS011;1158;48.750;9.078;2023-07-24T00:45:19;19.63;;;9.50;;
2299;SDS011;1158;48.750;9.078;2023-07-24T00:47:47;14.97;;;9.23;;
2299;SDS011;1158;48.750;9.078;2023-07-24T00:50:14;13.60;;;9.63;;
2299;SDS011;1158;48.750;9.078;2023-07-24T00:52:41;16.50;;;10.63;;
2299;SDS011;1158;48.750;9.078;2023-07-24T00:55:09;16.17;;;10.30;;
2299;SDS011;1158;48.750;9.078;2023-07-24T00:57:38;16.77;;;11.20;;
2299;SDS011;1158;48.750;9.078;2023-07-24T01:00:06;15.30;;;9.43;;
2299;SDS011;1158;48.750;9.078;2023-07-24T01:02:35;14.60;;;9.93;;
2299;SDS011;1158;48.750;9.078;2023-07-24T01:05:03;15.80;;;10.00;;
2299;SDS011;1158;48.750;9.078;2023-07-24T01:07:30;13.07;;;9.60;;
2299;SDS011;1158;48.750;9.078;2023-07-24T01:09:57;14.50;;;10.63;;
2299;SDS011;1158;48.750;9.078;2023-07-24T01:12:27;14.50;;;9.90;;
2299;SDS011;1158;48.750;9.078;2023-07-24T01:14:58;15.73;;;9.70;;
2299;SDS011;1158;48.750;9.078;2023-07-24T01:17:32;16.30;;;9.73;;
2299;SDS011;1158;48.750;9.078;2023-07-24T01:20:05;21.60;;;10.87;;
2299;SDS011;1158;48.750;9.078;2023-07-24T01:22:37;15.93;;;10.53;;
2299;SDS011;1158;48.750;9.078;2023-07-24T01:25:09;15.33;;;10.60;;
2299;SDS011;1158;48.750;9.078;2023-07-24T01:27:45;14.13;;;9.53;;
2299;SDS011;1158;48.750;9.078;2023-07-24T01:30:16;17.83;;;11.87;;
2299;SDS011;1158;48.750;9.078;2023-07-24T01:32:44;18.40;;;10.60;;
2299;SDS011;1158;48.750;9.078;2023-07-24T01:35:11;15.67;;;10.63;;
2299;SDS011;1158;48.750;9.078;2023-07-24T01:37:38;24.30;;;10.73;;
2299;SDS011;1158;48.750;9.078;2023-07-24T01:40:07;15.00;;;10.10;;
2299;SDS011;1158;48.750;9.078;2023-07-24T01:42:35;17.20;;;11.07;;
2299;SDS011;1158;48.750;9.078;2023-07-24T01:45:04;18.90;;;11.70;;
2299;SDS011;1158;48.750;9.078;2023-07-24T01:47:32;15.30;;;11.30;;
2299;SDS011;1158;48.750;9.078;2023-07-24T01:49:58;17.43;;;11.60;;
2299;SDS011;1158;48.750;9.078;2023-07-24T01:52:25;17.73;;;11.17;;
2299;SDS011;1158;48.750;9.078;2023-07-24T01:54:52;16.53;;;10.50;;
2299;SDS011;1158;48.750;9.078;2023-07-24T01:57:19;16.30;;;10.70;;
2299;SDS011;1158;48.750;9.078;2023-07-24T01:59:45;17.30;;;11.27;;
2299;SDS011;1158;48.750;9.078;2023-07-24T02:02:15;17.03;;;10.87;;
2299;SDS011;1158;48.750;9.078;2023-07-24T02:04:42;18.00;;;12.00;;
2299;SDS011;1158;48.750;9.078;2023-07-24T02:07:08;19.60;;;12.07;;
2299;SDS011;1158;48.750;9.078;2023-07-24T02:09:35;17.53;;;11.03;;
2299;SDS011;1158;48.750;9.078;2023-07-24T02:12:02;17.83;;;11.57;;
2299;SDS011;1158;48.750;9.078;2023-07-24T02:14:29;16.80;;;10.97;;
2299;SDS011;1158;48.750;9.078;2023-07-24T02:16:56;16.17;;;12.20;;
2299;SDS011;1158;48.750;9.078;2023-07-24T02:19:24;16.13;;;10.50;;
2299;SDS011;1158;48.750;9.078;2023-07-24T02:25:13;17.73;;;11.30;;
2299;SDS011;1158;48.750;9.078;2023-07-24T02:27:40;17.20;;;10.87;;
2299;SDS011;1158;48.750;9.078;2023-07-24T02:30:07;15.80;;;10.67;;
2299;SDS011;1158;48.750;9.078;2023-07-24T02:32:34;18.50;;;11.03;;
2299;SDS011;1158;48.750;9.078;2023-07-24T02:35:02;18.17;;;11.03;;
2299;SDS011;1158;48.750;9.078;2023-07-24T02:37:29;15.73;;;10.40;;
2299;SDS011;1158;48.750;9.078;2023-07-24T02:39:56;21.30;;;12.40;;
2299;SDS011;1158;48.750;9.078;2023-07-24T02:42:23;16.20;;;11.93;;
2299;SDS011;1158;48.750;9.078;2023-07-24T02:44:50;16.07;;;10.80;;
2299;SDS011;1158;48.750;9.078;2023-07-24T02:47:18;21.53;;;11.43;;
2299;SDS011;1158;48.750;9.078;2023-07-24T02:49:44;14.20;;;9.63;;
2299;SDS011;1158;48.750;9.078;2023-07-24T02:52:12;16.80;;;10.60;;
2299;SDS011;1158;48.750;9.078;2023-07-24T02:54:39;13.97;;;9.37;;
2299;SDS011;1158;48.750;9.078;2023-07-24T02:57:06;15.87;;;11.20;;
2299;SDS011;1158;48.750;9.078;2023-07-24T02:59:32;13.73;;;9.53;;
2299;SDS011;1158;48.750;9.078;2023-07-24T03:02:00;18.73;;;12.00;;
2299;SDS011;1158;48.750;9.078;2023-07-24T03:04:27;14.50;;;10.03;;
2299;SDS011;1158;48.750;9.078;2023-07-24T03:06:53;15.63;;;10.13;;
2299;SDS011;1158;48.750;9.078;2023-07-24T03:09:21;17.70;;;11.00;;
2299;SDS011;1158;48.750;9.078;2023-07-24T03:11:48;18.90;;;12.17;;
2299;SDS011;1158;48.750;9.078;2023-07-24T03:14:15;17.43;;;10.37;;
2299;SDS011;1158;48.750;9.078;2023-07-24T03:16:41;16.43;;;11.00;;
2299;SDS011;1158;48.750;9.078;2023-07-24T03:19:08;23.53;;;11.20;;
2299;SDS011;1158;48.750;9.078;2023-07-24T03:21:35;17.83;;;10.47;;
2299;SDS011;1158;48.750;9.078;2023-07-24T03:24:01;15.47;;;11.27;;
2299;SDS011;1158;48.750;9.078;2023-07-24T03:26:29;18.20;;;11.60;;
2299;SDS011;1158;48.750;9.078;2023-07-24T03:28:56;16.77;;;10.90;;
2299;SDS011;1158;48.750;9.078;2023-07-24T03:31:23;18.40;;;10.60;;
2299;SDS011;1158;48.750;9.078;2023-07-24T03:33:50;19.30;;;13.03;;
2299;SDS011;1158;48.750;9.078;2023-07-24T03:36:16;15.40;;;10.53;;
2299;SDS011;1158;48.750;9.078;2023-07-24T03:38:43;19.40;;;12.40;;
2299;SDS011;1158;48.750;9.078;2023-07-24T03:41:10;16.47;;;10.53;;
2299;SDS011;1158;48.750;9.078;2023-07-24T03:43:38;18.03;;;11.30;;
2299;SDS011;1158;48.750;9.078;2023-07-24T03:46:04;17.57;;;11.37;;
2299;SDS011;1158;48.750;9.078;2023-07-24T03:48:31;16.70;;;10.57;;
2299;SDS011;1158;48.750;9.078;2023-07-24T03:50:59;16.60;;;10.93;;
2299;SDS011;1158;48.750;9.078;2023-07-24T03:53:26;14.97;;;9.90;;
2299;SDS011;1158;48.750;9.078;2023-07-24T03:55:53;14.70;;;10.00;;
2299;SDS011;1158;48.750;9.078;2023-07-24T03:58:20;16.67;;;11.00;;
2299;SDS011;1158;48.750;9.078;2023-07-24T04:00:48;13.90;;;9.83;;
2299;SDS011;1158;48.750;9.078;2023-07-24T04:03:15;15.90;;;10.07;;
2299;SDS011;1158;48.750;9.078;2023-07-24T04:05:42;17.73;;;9.37;;
2299;SDS011;1158;48.750;9.078;2023-07-24T04:08:08;15.93;;;11.03;;
2299;SDS011;1158;48.750;9.078;2023-07-24T04:10:35;15.07;;;10.00;;
2299;SDS011;1158;48.750;9.078;2023-07-24T04:13:02;15.37;;;10.70;;
2299;SDS011;1158;48.750;9.078;2023-07-24T04:15:29;17.27;;;11.23;;
2299;SDS011;1158;48.750;9.078;2023-07-24T04:17:57;16.10;;;10.27;;
2299;SDS011;1158;48.750;9.078;2023-07-24T04:20:24;14.70;;;10.07;;
2299;SDS011;1158;48.750;9.078;2023-07-24T04:22:50;14.80;;;10.50;;
2299;SDS011;1158;48.750;9.078;2023-07-24T04:25:17;13.97;;;8.90;;
2299;SDS011;1158;48.750;9.078;2023-07-24T04:27:44;14.50;;;10.07;;
2299;SDS011;1158;48.750;9.078;2023-07-24T04:30:11;15.23;;;10.23;;
2299;SDS011;1158;48.750;9.078;2023-07-24T04:32:37;15.63;;;11.20;;
2299;SDS011;1158;48.750;9.078;2023-07-24T04:35:06;16.20;;;10.37;;
2299;SDS011;1158;48.750;9.078;2023-07-24T04:37:33;12.90;;;9.17;;
2299;SDS011;1158;48.750;9.078;2023-07-24T04:40:00;14.20;;;10.23;;
2299;SDS011;1158;48.750;9.078;2023-07-24T04:42:27;14.87;;;10.80;;
2299;SDS011;1158;48.750;9.078;2023-07-24T04:44:54;13.80;;;9.17;;
2299;SDS011;1158;48.750;9.078;2023-07-24T04:47:20;13.70;;;9.53;;
2299;SDS011;1158;48.750;9.078;2023-07-24T04:49:47;16.57;;;10.10;;
2299;SDS011;1158;48.750;9.078;2023-07-24T04:52:15;13.93;;;10.17;;
2299;SDS011;1158;48.750;9.078;2023-07-24T04:54:42;14.37;;;9.33;;
2299;SDS011;1158;48.750;9.078;2023-07-24T04:57:08;14.20;;;9.90;;
2299;SDS011;1158;48.750;9.078;2023-07-24T04:59:35;12.20;;;9.40;;
2299;SDS011;1158;48.750;9.078;2023-07-24T05:02:02;13.40;;;8.90;;
2299;SDS011;1158;48.750;9.078;2023-07-24T05:04:29;12.83;;;9.27;;
2299;SDS011;1158;48.750;9.078;2023-07-24T05:06:56;13.27;;;9.30;;
2299;SDS011;1158;48.750;9.078;2023-07-24T05:09:24;16.13;;;8.97;;
2299;SDS011;1158;48.750;9.078;2023-07-24T05:11:50;13.03;;;9.97;;
2299;SDS011;1158;48.750;9.078;2023-07-24T05:14:17;18.93;;;10.30;;
2299;SDS011;1158;48.750;9.078;2023-07-24T05:16:44;16.50;;;10.07;;
2299;SDS011;1158;48.750;9.078;2023-07-24T05:19:10;14.30;;;9.40;;
2299;SDS011;1158;48.750;9.078;2023-07-24T05:21:37;14.30;;;9.00;;
2299;SDS011;1158;48.750;9.078;2023-07-24T05:24:04;17.23;;;9.93;;
2299;SDS011;1158;48.750;9.078;2023-07-24T05:26:32;13.50;;;9.53;;
2299;SDS011;1158;48.750;9.078;2023-07-24T05:28:59;12.33;;;8.83;;
2299;SDS011;1158;48.750;9.078;2023-07-24T05:31:26;14.97;;;9.50;;
2299;SDS011;1158;48.750;9.078;2023-07-24T05:33:52;13.33;;;9.40;;
2299;SDS011;1158;48.750;9.078;2023-07-24T05:36:19;16.30;;;9.90;;
2299;SDS011;1158;48.750;9.078;2023-07-24T05:38:45;15.80;;;9.57;;
2299;SDS011;1158;48.750;9.078;2023-07-24T05:41:12;14.47;;;9.77;;
2299;SDS011;1158;48.750;9.078;2023-07-24T05:43:40;13.30;;;9.33;;
2299;SDS011;1158;48.750;9.078;2023-07-24T05:46:07;13.90;;;9.67;;
2299;SDS011;1158;48.750;9.078;2023-07-24T05:48:33;14.97;;;10.27;;
2299;SDS011;1158;48.750;9.078;2023-07-24T05:51:00;13.77;;;9.30;;
2299;SDS011;1158;48.750;9.078;2023-07-24T05:53:27;15.00;;;10.07;;
2299;SDS011;1158;48.750;9.078;2023-07-24T05:55:57;14.30;;;9.70;;
2299;SDS011;1158;48.750;9.078;2023-07-24T05:58:25;14.07;;;9.13;;
2299;SDS011;1158;48.750;9.078;2023-07-24T06:00:53;14.97;;;9.50;;
2299;SDS011;1158;48.750;9.078;2023-07-24T06:03:20;14.87;;;10.20;;
2299;SDS011;1158;48.750;9.078;2023-07-24T06:05:50;18.77;;;9.90;;
2299;SDS011;1158;48.750;9.078;2023-07-24T06:08:17;16.77;;;10.43;;
2299;SDS011;1158;48.750;9.078;2023-07-24T06:10:45;15.03;;;9.80;;
2299;SDS011;1158;48.750;9.078;2023-07-24T06:13:12;13.63;;;9.60;;
2299;SDS011;1158;48.750;9.078;2023-07-24T06:15:39;16.10;;;9.80;;
2299;SDS011;1158;48.750;9.078;2023-07-24T06:18:07;14.10;;;8.60;;
2299;SDS011;1158;48.750;9.078;2023-07-24T06:20:34;15.23;;;9.33;;
2299;SDS011;1158;48.750;9.078;2023-07-24T06:23:01;12.97;;;9.17;;
2299;SDS011;1158;48.750;9.078;2023-07-24T06:25:28;11.13;;;8.60;;
2299;SDS011;1158;48.750;9.078;2023-07-24T06:27:55;14.80;;;10.03;;
2299;SDS011;1158;48.750;9.078;2023-07-24T06:30:22;14.13;;;9.23;;
2299;SDS011;1158;48.750;9.078;2023-07-24T06:32:49;15.57;;;9.10;;
2299;SDS011;1158;48.750;9.078;2023-07-24T06:35:17;16.20;;;9.83;;
2299;SDS011;1158;48.750;9.078;2023-07-24T06:37:44;13.30;;;9.20;;
2299;SDS011;1158;48.750;9.078;2023-07-24T06:40:10;12.50;;;8.90;;
2299;SDS011;1158;48.750;9.078;2023-07-24T06:42:37;13.83;;;9.73;;
2299;SDS011;1158;48.750;9.078;2023-07-24T06:45:05;14.63;;;8.80;;
2299;SDS011;1158;48.750;9.078;2023-07-24T06:47:32;14.23;;;9.80;;
2299;SDS011;1158;48.750;9.078;2023-07-24T06:49:59;15.03;;;9.27;;
2299;SDS011;1158;48.750;9.078;2023-07-24T06:52:28;14.63;;;8.50;;
2299;SDS011;1158;48.750;9.078;2023-07-24T06:54:55;13.80;;;10.17;;
2299;SDS011;1158;48.750;9.078;2023-07-24T06:57:23;12.60;;;8.80;;
2299;SDS011;1158;48.750;9.078;2023-07-24T06:59:49;13.87;;;9.10;;
2299;SDS011;1158;48.750;9.078;2023-07-24T07:02:16;19.73;;;10.77;;
2299;SDS011;1158;48.750;9.078;2023-07-24T07:04:43;12.77;;;8.80;;
2299;SDS011;1158;48.750;9.078;2023-07-24T07:07:10;14.40;;;9.93;;
2299;SDS011;1158;48.750;9.078;2023-07-24T07:09:38;15.30;;;9.17;;
2299;SDS011;1158;48.750;9.078;2023-07-24T07:12:05;14.87;;;9.90;;
2299;SDS011;1158;48.750;9.078;2023-07-24T07:14:32;14.13;;;9.50;;
2299;SDS011;1158;48.750;9.078;2023-07-24T07:16:59;13.47;;;9.77;;
2299;SDS011;1158;48.750;9.078;2023-07-24T07:19:26;14.77;;;9.37;;
2299;SDS011;1158;48.750;9.078;2023-07-24T07:21:53;15.70;;;10.27;;
2299;SDS011;1158;48.750;9.078;2023-07-24T07:24:20;14.60;;;9.47;;
2299;SDS011;1158;48.750;9.078;2023-07-24T07:26:48;11.17;;;8.73;;
2299;SDS011;1158;48.750;9.078;2023-07-24T07:29:14;17.00;;;9.40;;
2299;SDS011;1158;48.750;9.078;2023-07-24T07:31:41;15.20;;;10.73;;
2299;SDS011;1158;48.750;9.078;2023-07-24T07:34:08;17.93;;;10.00;;
2299;SDS011;1158;48.750;9.078;2023-07-24T07:36:34;13.73;;;8.70;;
2299;SDS011;1158;48.750;9.078;2023-07-24T07:39:01;13.90;;;9.27;;
2299;SDS011;1158;48.750;9.078;2023-07-24T07:41:28;18.63;;;9.33;;
2299;SDS011;1158;48.750;9.078;2023-07-24T07:43:57;15.93;;;10.00;;
2299;SDS011;1158;48.750;9.078;2023-07-24T07:46:24;13.67;;;9.23;;
2299;SDS011;1158;48.750;9.078;2023-07-24T07:48:51;15.23;;;8.93;;
2299;SDS011;1158;48.750;9.078;2023-07-24T07:51:17;14.40;;;9.10;;
2299;SDS011;1158;48.750;9.078;2023-07-24T07:53:44;14.07;;;9.23;;
2299;SDS011;1158;48.750;9.078;2023-07-24T07:56:11;15.13;;;9.40;;
2299;SDS011;1158;48.750;9.078;2023-07-24T07:58:38;12.40;;;9.50;;
2299;SDS011;1158;48.750;9.078;2023-07-24T08:01:06;14.77;;;10.10;;
2299;SDS011;1158;48.750;9.078;2023-07-24T08:03:33;12.70;;;8.70;;
2299;SDS011;1158;48.750;9.078;2023-07-24T08:06:00;16.10;;;10.03;;
2299;SDS011;1158;48.750;9.078;2023-07-24T08:08:27;15.40;;;9.13;;
2299;SDS011;1158;48.750;9.078;2023-07-24T08:10:54;14.80;;;9.10;;
2299;SDS011;1158;48.750;9.078;2023-07-24T08:13:20;14.87;;;9.53;;
2299;SDS011;1158;48.750;9.078;2023-07-24T08:15:47;15.23;;;9.83;;
2299;SDS011;1158;48.750;9.078;2023-07-24T08:18:16;17.03;;;10.13;;
2299;SDS011;1158;48.750;9.078;2023-07-24T08:20:43;15.53;;;10.43;;
2299;SDS011;1158;48.750;9.078;2023-07-24T08:23:10;18.00;;;10.80;;
2299;SDS011;1158;48.750;9.078;2023-07-24T08:25:36;15.97;;;10.70;;
2299;SDS011;1158;48.750;9.078;2023-07-24T08:28:03;15.57;;;11.00;;
2299;SDS011;1158;48.750;9.078;2023-07-24T08:30:30;17.40;;;11.30;;
2299;SDS011;1158;48.750;9.078;2023-07-24T08:32:57;17.90;;;10.50;;
2299;SDS011;1158;48.750;9.078;2023-07-24T08:35:25;16.27;;;11.43;;
2299;SDS011;1158;48.750;9.078;2023-07-24T08:37:52;15.87;;;11.17;;
2299;SDS011;1158;48.750;9.078;2023-07-24T08:40:19;21.30;;;11.50;;
2299;SDS011;1158;48.750;9.078;2023-07-24T08:42:46;18.73;;;12.43;;
2299;SDS011;1158;48.750;9.078;2023-07-24T08:45:15;18.10;;;12.33;;
2299;SDS011;1158;48.750;9.078;2023-07-24T08:47:43;17.03;;;11.50;;
2299;SDS011;1158;48.750;9.078;2023-07-24T08:50:10;17.70;;;10.73;;
2299;SDS011;1158;48.750;9.078;2023-07-24T08:52:38;16.53;;;10.17;;
2299;SDS011;1158;48.750;9.078;2023-07-24T08:55:07;23.63;;;11.00;;
2299;SDS011;1158;48.750;9.078;2023-07-24T08:57:36;18.17;;;11.27;;
2299;SDS011;1158;48.750;9.078;2023-07-24T09:00:03;14.37;;;9.30;;
2299;SDS011;1158;48.750;9.078;2023-07-24T09:02:31;11.50;;;7.63;;
2299;SDS011;1158;48.750;9.078;2023-07-24T09:04:58;16.13;;;9.07;;
2299;SDS011;1158;48.750;9.078;2023-07-24T09:07:24;12.70;;;8.57;;
2299;SDS011;1158;48.750;9.078;2023-07-24T09:09:52;15.00;;;8.77;;
2299;SDS011;1158;48.750;9.078;2023-07-24T09:12:21;9.07;;;6.87;;
2299;SDS011;1158;48.750;9.078;2023-07-24T09:14:59;11.67;;;7.90;;
2299;SDS011;1158;48.750;9.078;2023-07-24T09:17:27;10.90;;;7.63;;
2299;SDS011;1158;48.750;9.078;2023-07-24T09:19:55;11.47;;;7.27;;
2299;SDS011;1158;48.750;9.078;2023-07-24T09:22:22;12.23;;;7.83;;
2299;SDS011;1158;48.750;9.078;2023-07-24T09:24:53;13.47;;;7.87;;
2299;SDS011;1158;48.750;9.078;2023-07-24T09:27:20;9.30;;;6.60;;
2299;SDS011;1158;48.750;9.078;2023-07-24T09:29:50;14.53;;;6.93;;
2299;SDS011;1158;48.750;9.078;2023-07-24T09:32:20;12.13;;;7.53;;
2299;SDS011;1158;48.750;9.078;2023-07-24T09:34:48;11.23;;;7.10;;
2299;SDS011;1158;48.750;9.078;2023-07-24T09:37:23;10.80;;;7.13;;
2299;SDS011;1158;48.750;9.078;2023-07-24T09:39:52;9.30;;;7.07;;
2299;SDS011;1158;48.750;9.078;2023-07-24T09:42:27;11.10;;;6.20;;
2299;SDS011;1158;48.750;9.078;2023-07-24T09:44:54;8.07;;;6.80;;
2299;SDS011;1158;48.750;9.078;2023-07-24T09:47:21;9.17;;;6.57;;
2299;SDS011;1158;48.750;9.078;2023-07-24T09:49:48;13.10;;;6.70;;
2299;SDS011;1158;48.750;9.078;2023-07-24T09:52:17;11.33;;;6.27;;
2299;SDS011;1158;48.750;9.078;2023-07-24T09:54:46;11.47;;;6.90;;
2299;SDS011;1158;48.750;9.078;2023-07-24T09:57:21;10.57;;;7.50;;
2299;SDS011;1158;48.750;9.078;2023-07-24T09:59:49;10.53;;;7.97;;
2299;SDS011;1158;48.750;9.078;2023-07-24T10:02:19;11.00;;;7.70;;
2299;SDS011;1158;48.750;9.078;2023-07-24T10:04:46;10.97;;;7.77;;
2299;SDS011;1158;48.750;9.078;2023-07-24T10:07:13;14.00;;;7.60;;
2299;SDS011;1158;48.750;9.078;2023-07-24T10:09:41;11.17;;;6.97;;
2299;SDS011;1158;48.750;9.078;2023-07-24T10:12:09;11.63;;;7.80;;
2299;SDS011;1158;48.750;9.078;2023-07-24T10:14:37;9.90;;;7.07;;
2299;SDS011;1158;48.750;9.078;2023-07-24T10:17:04;11.60;;;7.30;;
2299;SDS011;1158;48.750;9.078;2023-07-24T10:19:38;14.70;;;7.53;;
2299;SDS011;1158;48.750;9.078;2023-07-24T10:22:08;12.10;;;7.70;;
2299;SDS011;1158;48.750;9.078;2023-07-24T10:24:35;12.33;;;8.50;;
2299;SDS011;1158;48.750;9.078;2023-07-24T10:27:02;11.07;;;7.87;;
2299;SDS011;1158;48.750;9.078;2023-07-24T10:29:33;11.17;;;7.70;;
2299;SDS011;1158;48.750;9.078;2023-07-24T10:32:02;11.30;;;7.40;;
2299;SDS011;1158;48.750;9.078;2023-07-24T10:34:36;10.90;;;7.60;;
2299;SDS011;1158;48.750;9.078;2023-07-24T10:37:06;11.50;;;8.70;;
2299;SDS011;1158;48.750;9.078;2023-07-24T10:39:37;14.90;;;8.50;;
2299;SDS011;1158;48.750;9.078;2023-07-24T10:42:05;12.57;;;8.50;;
2299;SDS011;1158;48.750;9.078;2023-07-24T10:44:33;13.60;;;9.17;;
2299;SDS011;1158;48.750;9.078;2023-07-24T10:47:01;13.40;;;8.87;;
2299;SDS011;1158;48.750;9.078;2023-07-24T10:49:28;13.87;;;8.90;;
2299;SDS011;1158;48.750;9.078;2023-07-24T10:51:55;12.00;;;8.03;;
2299;SDS011;1158;48.750;9.078;2023-07-24T10:54:22;13.10;;;9.80;;
2299;SDS011;1158;48.750;9.078;2023-07-24T10:56:49;17.27;;;9.50;;
2299;SDS011;1158;48.750;9.078;2023-07-24T10:59:15;12.50;;;8.70;;
2299;SDS011;1158;48.750;9.078;2023-07-24T11:01:42;12.17;;;8.80;;
2299;SDS011;1158;48.750;9.078;2023-07-24T11:04:10;16.73;;;9.67;;
2299;SDS011;1158;48.750;9.078;2023-07-24T11:06:37;15.37;;;10.40;;
2299;SDS011;1158;48.750;9.078;2023-07-24T11:09:04;13.93;;;8.73;;
2299;SDS011;1158;48.750;9.078;2023-07-24T11:11:31;14.57;;;9.50;;
2299;SDS011;1158;48.750;9.078;2023-07-24T11:13:59;13.90;;;9.00;;
2299;SDS011;1158;48.750;9.078;2023-07-24T11:16:27;14.97;;;9.60;;
2299;SDS011;1158;48.750;9.078;2023-07-24T11:18:55;13.40;;;9.80;;
2299;SDS011;1158;48.750;9.078;2023-07-24T11:21:23;15.03;;;9.83;;
2299;SDS011;1158;48.750;9.078;2023-07-24T11:23:50;14.83;;;9.57;;
2299;SDS011;1158;48.750;9.078;2023-07-24T11:26:18;11.60;;;8.70;;
2299;SDS011;1158;48.750;9.078;2023-07-24T11:28:45;14.43;;;9.40;;
2299;SDS011;1158;48.750;9.078;2023-07-24T11:31:12;14.03;;;8.97;;
2299;SDS011;1158;48.750;9.078;2023-07-24T11:33:40;11.60;;;9.10;;
2299;SDS011;1158;48.750;9.078;2023-07-24T11:36:07;14.00;;;10.20;;
2299;SDS011;1158;48.750;9.078;2023-07-24T11:38:37;14.30;;;9.60;;
2299;SDS011;1158;48.750;9.078;2023-07-24T11:41:04;12.83;;;8.63;;
2299;SDS011;1158;48.750;9.078;2023-07-24T11:43:31;11.90;;;8.37;;
2299;SDS011;1158;48.750;9.078;2023-07-24T11:45:57;14.30;;;8.20;;
2299;SDS011;1158;48.750;9.078;2023-07-24T11:48:24;14.13;;;8.83;;
2299;SDS011;1158;48.750;9.078;2023-07-24T11:50:51;10.83;;;7.80;;
2299;SDS011;1158;48.750;9.078;2023-07-24T11:53:20;9.73;;;7.90;;
2299;SDS011;1158;48.750;9.078;2023-07-24T11:55:49;11.13;;;7.57;;
2299;SDS011;1158;48.750;9.078;2023-07-24T11:58:17;11.10;;;8.47;;
2299;SDS011;1158;48.750;9.078;2023-07-24T12:00:45;12.40;;;8.77;;
2299;SDS011;1158;48.750;9.078;2023-07-24T12:03:12;15.23;;;9.50;;
2299;SDS011;1158;48.750;9.078;2023-07-24T12:05:39;16.70;;;8.03;;
2299;SDS011;1158;48.750;9.078;2023-07-24T12:08:07;11.87;;;7.70;;
2299;SDS011;1158;48.750;9.078;2023-07-24T12:10:35;12.13;;;7.77;;
2299;SDS011;1158;48.750;9.078;2023-07-24T12:13:05;13.33;;;7.57;;
2299;SDS011;1158;48.750;9.078;2023-07-24T12:15:32;10.87;;;7.17;;
2299;SDS011;1158;48.750;9.078;2023-07-24T12:18:00;10.70;;;7.10;;
2299;SDS011;1158;48.750;9.078;2023-07-24T12:20:27;12.70;;;7.63;;
2299;SDS011;1158;48.750;9.078;2023-07-24T12:22:55;13.50;;;8.27;;
2299;SDS011;1158;48.750;9.078;2023-07-24T12:25:22;13.60;;;7.97;;
2299;SDS011;1158;48.750;9.078;2023-07-24T12:27:49;16.03;;;7.50;;
2299;SDS011;1158;48.750;9.078;2023-07-24T12:30:17;14.90;;;8.20;;
2299;SDS011;1158;48.750;9.078;2023-07-24T12:32:44;9.93;;;7.50;;
2299;SDS011;1158;48.750;9.078;2023-07-24T12:35:11;9.70;;;6.80;;
2299;SDS011;1158;48.750;9.078;2023-07-24T12:37:38;9.03;;;7.20;;
2299;SDS011;1158;48.750;9.078;2023-07-24T12:40:05;9.30;;;6.77;;
2299;SDS011;1158;48.750;9.078;2023-07-24T12:42:33;12.20;;;6.63;;
2299;SDS011;1158;48.750;9.078;2023-07-24T12:45:00;10.83;;;7.60;;
2299;SDS011;1158;48.750;9.078;2023-07-24T12:47:30;9.67;;;7.70;;
2299;SDS011;1158;48.750;9.078;2023-07-24T12:49:57;9.90;;;7.63;;
2299;SDS011;1158;48.750;9.078;2023-07-24T12:52:24;9.20;;;6.87;;
2299;SDS011;1158;48.750;9.078;2023-07-24T12:54:51;9.80;;;6.30;;
2299;SDS011;1158;48.750;9.078;2023-07-24T12:57:17;8.20;;;6.43;;
2299;SDS011;1158;48.750;9.078;2023-07-24T12:59:44;10.30;;;7.43;;
2299;SDS011;1158;48.750;9.078;2023-07-24T13:02:11;10.27;;;6.17;;
2299;SDS011;1158;48.750;9.078;2023-07-24T13:04:39;9.20;;;6.47;;
2299;SDS011;1158;48.750;9.078;2023-07-24T13:07:06;9.13;;;6.27;;
2299;SDS011;1158;48.750;9.078;2023-07-24T13:09:32;7.33;;;5.80;;
2299;SDS011;1158;48.750;9.078;2023-07-24T13:11:59;10.90;;;6.50;;
2299;SDS011;1158;48.750;9.078;2023-07-24T13:14:26;7.63;;;5.77;;
2299;SDS011;1158;48.750;9.078;2023-07-24T13:16:53;9.53;;;6.33;;
2299;SDS011;1158;48.750;9.078;2023-07-24T13:19:19;10.33;;;6.37;;
2299;SDS011;1158;48.750;9.078;2023-07-24T13:21:47;7.80;;;6.43;;
2299;SDS011;1158;48.750;9.078;2023-07-24T13:24:14;8.63;;;6.43;;
2299;SDS011;1158;48.750;9.078;2023-07-24T13:26:41;9.03;;;6.60;;
2299;SDS011;1158;48.750;9.078;2023-07-24T13:29:07;7.50;;;6.17;;
2299;SDS011;1158;48.750;9.078;2023-07-24T13:31:34;7.60;;;5.77;;
2299;SDS011;1158;48.750;9.078;2023-07-24T13:34:02;7.70;;;5.90;;
2299;SDS011;1158;48.750;9.078;2023-07-24T13:36:28;7.23;;;5.70;;
2299;SDS011;1158;48.750;9.078;2023-07-24T13:38:56;9.00;;;5.40;;
2299;SDS011;1158;48.750;9.078;2023-07-24T13:41:23;7.20;;;5.33;;
2299;SDS011;1158;48.750;9.078;2023-07-24T13:43:50;7.70;;;6.03;;
2299;SDS011;1158;48.750;9.078;2023-07-24T13:46:17;6.97;;;5.63;;
2299;SDS011;1158;48.750;9.078;2023-07-24T13:48:44;7.50;;;5.70;;
2299;SDS011;1158;48.750;9.078;2023-07-24T13:51:10;7.77;;;5.93;;
2299;SDS011;1158;48.750;9.078;2023-07-24T13:53:37;7.20;;;5.37;;
2299;SDS011;1158;48.750;9.078;2023-07-24T13:56:05;7.63;;;5.57;;
2299;SDS011;1158;48.750;9.078;2023-07-24T13:58:32;7.10;;;5.53;;
2299;SDS011;1158;48.750;9.078;2023-07-24T14:00:59;6.97;;;5.20;;
2299;SDS011;1158;48.750;9.078;2023-07-24T14:03:26;6.03;;;5.07;;
2299;SDS011;1158;48.750;9.078;2023-07-24T14:05:54;5.80;;;4.70;;
2299;SDS011;1158;48.750;9.078;2023-07-24T14:08:22;6.97;;;5.20;;
2299;SDS011;1158;48.750;9.078;2023-07-24T14:10:48;6.33;;;5.20;;
2299;SDS011;1158;48.750;9.078;2023-07-24T14:13:17;5.90;;;4.60;;
2299;SDS011;1158;48.750;9.078;2023-07-24T14:15:43;7.60;;;5.10;;
2299;SDS011;1158;48.750;9.078;2023-07-24T14:18:10;7.23;;;4.80;;
2299;SDS011;1158;48.750;9.078;2023-07-24T14:20:37;7.00;;;5.50;;
2299;SDS011;1158;48.750;9.078;2023-07-24T14:23:05;5.50;;;4.30;;
2299;SDS011;1158;48.750;9.078;2023-07-24T14:25:33;6.77;;;5.40;;
2299;SDS011;1158;48.750;9.078;2023-07-24T14:27:59;6.70;;;5.17;;
2299;SDS011;1158;48.750;9.078;2023-07-24T14:30:28;6.37;;;5.00;;
2299;SDS011;1158;48.750;9.078;2023-07-24T14:32:54;6.47;;;4.70;;
2299;SDS011;1158;48.750;9.078;2023-07-24T14:35:21;6.03;;;4.30;;
2299;SDS011;1158;48.750;9.078;2023-07-24T14:37:48;9.33;;;4.67;;
2299;SDS011;1158;48.750;9.078;2023-07-24T14:40:15;8.17;;;5.27;;
2299;SDS011;1158;48.750;9.078;2023-07-24T14:42:42;8.10;;;5.40;;
2299;SDS011;1158;48.750;9.078;2023-07-24T14:45:09;6.50;;;4.13;;
2299;SDS011;1158;48.750;9.078;2023-07-24T14:47:37;8.60;;;4.60;;
2299;SDS011;1158;48.750;9.078;2023-07-24T14:50:04;8.77;;;5.57;;
2299;SDS011;1158;48.750;9.078;2023-07-24T14:52:32;6.33;;;4.53;;
2299;SDS011;1158;48.750;9.078;2023-07-24T14:54:59;5.47;;;4.50;;
2299;SDS011;1158;48.750;9.078;2023-07-24T14:57:25;9.17;;;5.63;;
2299;SDS011;1158;48.750;9.078;2023-07-24T14:59:52;8.20;;;5.53;;
2299;SDS011;1158;48.750;9.078;2023-07-24T15:02:19;6.03;;;4.47;;
2299;SDS011;1158;48.750;9.078;2023-07-24T15:04:47;6.93;;;5.00;;